sensor_id;sensor_type;location;lat;lon;timestamp;P1;durP1;ratioP1;P2;durP2;ratioP2
20751;SDS011;10536;51.582;5.016;2022-12-20T15:56:34;46.50;;;24.30;;
20751;SDS011;10536;51.582;5.016;2022-12-20T16:01:35;48.35;;;23.58;;
20751;SDS011;10536;51.582;5.016;2022-12-20T16:06:39;46.47;;;23.90;;
20751;SDS011;10536;51.582;5.016;2022-12-20T16:11:42;73.13;;;47.58;;
20751;SDS011;10536;51.582;5.016;2022-12-20T16:16:43;45.97;;;26.50;;
20751;SDS011;10536;51.582;5.016;2022-12-20T16:21:45;59.15;;;29.88;;
20751;SDS011;10536;51.582;5.016;2022-12-20T16:26:47;86.13;;;37.80;;
20751;SDS011;10536;51.582;5.016;2022-12-20T16:31:48;61.67;;;30.20;;
20751;SDS011;10536;51.582;5.016;2022-12-20T16:36:48;62.72;;;29.27;;
20751;SDS011;10536;51.582;5.016;2022-12-20T16:41:49;82.10;;;31.60;;
20751;SDS011;10536;51.582;5.016;2022-12-20T16:46:50;70.47;;;33.90;;
20751;SDS011;10536;51.582;5.016;2022-12-20T16:51:50;66.53;;;33.90;;
20751;SDS011;10536;51.582;5.016;2022-12-20T16:56:51;53.65;;;30.73;;
20751;SDS011;10536;51.582;5.016;2022-12-20T17:01:55;58.33;;;30.73;;
20751;SDS011;10536;51.582;5.016;2022-12-20T17:06:56;75.40;;;36.42;;
20751;SDS011;10536;51.582;5.016;2022-12-20T17:11:57;64.97;;;33.55;;
20751;SDS011;10536;51.582;5.016;2022-12-20T17:16:57;61.97;;;32.22;;
20751;SDS011;10536;51.582;5.016;2022-12-20T17:21:58;59.92;;;32.42;;
20751;SDS011;10536;51.582;5.016;2022-12-20T17:26:59;81.45;;;35.78;;
20751;SDS011;10536;51.582;5.016;2022-12-20T17:32:00;115.65;;;39.40;;
20751;SDS011;10536;51.582;5.016;2022-12-20T17:37:02;69.10;;;33.30;;
20751;SDS011;10536;51.582;5.016;2022-12-20T17:42:03;81.78;;;36.95;;
20751;SDS011;10536;51.582;5.016;2022-12-20T17:47:03;108.20;;;42.00;;
20751;SDS011;10536;51.582;5.016;2022-12-20T17:52:04;67.28;;;35.90;;
20751;SDS011;10536;51.582;5.016;2022-12-20T17:57:04;71.47;;;33.20;;
20751;SDS011;10536;51.582;5.016;2022-12-20T18:02:23;79.10;;;35.13;;
20751;SDS011;10536;51.582;5.016;2022-12-20T18:07:24;89.15;;;35.83;;
20751;SDS011;10536;51.582;5.016;2022-12-20T18:12:25;76.00;;;35.22;;
20751;SDS011;10536;51.582;5.016;2022-12-20T18:17:25;84.25;;;34.03;;
20751;SDS011;10536;51.582;5.016;2022-12-20T18:22:26;101.68;;;36.33;;
20751;SDS011;10536;51.582;5.016;2022-12-20T18:27:26;85.23;;;34.27;;
20751;SDS011;10536;51.582;5.016;2022-12-20T18:32:26;92.63;;;35.43;;
20751;SDS011;10536;51.582;5.016;2022-12-20T18:37:27;92.50;;;35.47;;
20751;SDS011;10536;51.582;5.016;2022-12-20T18:42:28;93.28;;;36.50;;
20751;SDS011;10536;51.582;5.016;2022-12-20T18:47:29;94.30;;;37.15;;
20751;SDS011;10536;51.582;5.016;2022-12-20T18:52:31;96.72;;;36.92;;
20751;SDS011;10536;51.582;5.016;2022-12-20T18:57:31;97.40;;;37.55;;
20751;SDS011;10536;51.582;5.016;2022-12-20T19:02:32;123.55;;;41.95;;
20751;SDS011;10536;51.582;5.016;2022-12-20T19:07:32;117.53;;;39.60;;
20751;SDS011;10536;51.582;5.016;2022-12-20T19:12:33;86.90;;;36.93;;
20751;SDS011;10536;51.582;5.016;2022-12-20T19:17:34;113.25;;;38.63;;
20751;SDS011;10536;51.582;5.016;2022-12-20T19:22:35;101.80;;;37.33;;
20751;SDS011;10536;51.582;5.016;2022-12-20T19:27:35;77.63;;;36.50;;
20751;SDS011;10536;51.582;5.016;2022-12-20T19:32:36;120.60;;;42.00;;
20751;SDS011;10536;51.582;5.016;2022-12-20T19:37:37;97.10;;;41.35;;
20751;SDS011;10536;51.582;5.016;2022-12-20T19:42:40;129.18;;;40.10;;
20751;SDS011;10536;51.582;5.016;2022-12-20T19:47:43;87.15;;;37.75;;
20751;SDS011;10536;51.582;5.016;2022-12-20T19:52:43;141.20;;;43.20;;
20751;SDS011;10536;51.582;5.016;2022-12-20T19:57:44;162.00;;;51.85;;
20751;SDS011;10536;51.582;5.016;2022-12-20T20:02:44;123.77;;;42.10;;
20751;SDS011;10536;51.582;5.016;2022-12-20T20:07:45;126.15;;;43.95;;
20751;SDS011;10536;51.582;5.016;2022-12-20T20:12:45;229.70;;;50.75;;
20751;SDS011;10536;51.582;5.016;2022-12-20T20:17:46;133.25;;;43.60;;
20751;SDS011;10536;51.582;5.016;2022-12-20T20:22:46;147.55;;;47.13;;
20751;SDS011;10536;51.582;5.016;2022-12-20T20:27:47;120.45;;;41.30;;
20751;SDS011;10536;51.582;5.016;2022-12-20T20:32:47;99.47;;;39.78;;
20751;SDS011;10536;51.582;5.016;2022-12-20T20:37:48;118.60;;;41.83;;
20751;SDS011;10536;51.582;5.016;2022-12-20T20:42:48;115.53;;;42.58;;
20751;SDS011;10536;51.582;5.016;2022-12-20T20:47:50;123.53;;;44.05;;
20751;SDS011;10536;51.582;5.016;2022-12-20T20:52:51;127.22;;;44.22;;
20751;SDS011;10536;51.582;5.016;2022-12-20T20:57:51;117.13;;;42.63;;
20751;SDS011;10536;51.582;5.016;2022-12-20T21:02:52;122.50;;;39.40;;
20751;SDS011;10536;51.582;5.016;2022-12-20T21:07:52;80.23;;;26.73;;
20751;SDS011;10536;51.582;5.016;2022-12-20T21:12:53;65.80;;;23.50;;
20751;SDS011;10536;51.582;5.016;2022-12-20T21:17:54;64.45;;;24.65;;
20751;SDS011;10536;51.582;5.016;2022-12-20T21:22:54;97.55;;;29.02;;
20751;SDS011;10536;51.582;5.016;2022-12-20T21:27:56;92.20;;;28.83;;
20751;SDS011;10536;51.582;5.016;2022-12-20T21:32:57;71.18;;;26.90;;
20751;SDS011;10536;51.582;5.016;2022-12-20T21:37:57;102.43;;;29.52;;
20751;SDS011;10536;51.582;5.016;2022-12-20T21:42:58;104.50;;;32.70;;
20751;SDS011;10536;51.582;5.016;2022-12-20T21:47:59;159.65;;;38.08;;
20751;SDS011;10536;51.582;5.016;2022-12-20T21:52:59;104.38;;;37.25;;
20751;SDS011;10536;51.582;5.016;2022-12-20T21:58:00;156.10;;;45.40;;
20751;SDS011;10536;51.582;5.016;2022-12-20T22:03:00;141.02;;;44.53;;
20751;SDS011;10536;51.582;5.016;2022-12-20T22:08:00;130.33;;;44.03;;
20751;SDS011;10536;51.582;5.016;2022-12-20T22:13:01;186.10;;;49.40;;
20751;SDS011;10536;51.582;5.016;2022-12-20T22:18:02;148.87;;;45.27;;
20751;SDS011;10536;51.582;5.016;2022-12-20T22:23:06;200.73;;;50.05;;
20751;SDS011;10536;51.582;5.016;2022-12-20T22:28:08;255.57;;;52.92;;
20751;SDS011;10536;51.582;5.016;2022-12-20T22:33:08;229.60;;;53.70;;
20751;SDS011;10536;51.582;5.016;2022-12-20T22:38:09;262.83;;;56.65;;
20751;SDS011;10536;51.582;5.016;2022-12-20T22:43:09;269.95;;;54.95;;
20751;SDS011;10536;51.582;5.016;2022-12-20T22:48:10;219.20;;;53.77;;
20751;SDS011;10536;51.582;5.016;2022-12-20T22:53:10;241.83;;;55.60;;
20751;SDS011;10536;51.582;5.016;2022-12-20T22:58:11;410.55;;;61.40;;
20751;SDS011;10536;51.582;5.016;2022-12-20T23:03:12;262.50;;;54.72;;
20751;SDS011;10536;51.582;5.016;2022-12-20T23:08:13;277.08;;;54.67;;
20751;SDS011;10536;51.582;5.016;2022-12-20T23:13:13;347.80;;;57.15;;
20751;SDS011;10536;51.582;5.016;2022-12-20T23:18:32;297.67;;;53.15;;
20751;SDS011;10536;51.582;5.016;2022-12-20T23:23:33;285.55;;;52.40;;
20751;SDS011;10536;51.582;5.016;2022-12-20T23:28:33;287.25;;;54.97;;
20751;SDS011;10536;51.582;5.016;2022-12-20T23:33:34;278.00;;;56.47;;
20751;SDS011;10536;51.582;5.016;2022-12-20T23:38:35;526.83;;;65.55;;
20751;SDS011;10536;51.582;5.016;2022-12-20T23:43:36;281.02;;;57.92;;
20751;SDS011;10536;51.582;5.016;2022-12-20T23:48:36;547.17;;;68.28;;
20751;SDS011;10536;51.582;5.016;2022-12-20T23:53:37;485.83;;;64.57;;
20751;SDS011;10536;51.582;5.016;2022-12-20T23:58:38;490.92;;;63.47;;
